createdAt,value
2023-03-03T00:01:48.161Z,6.7
2023-03-03T00:08:07.951Z,6.7
2023-03-03T00:14:30.977Z,3.9
2023-03-03T00:20:50.931Z,3.9
2023-03-03T00:27:13.951Z,9.9
2023-03-03T00:33:33.906Z,9.9
2023-03-03T00:39:56.997Z,6.3
2023-03-03T00:46:16.959Z,6.3
2023-03-03T00:52:39.972Z,4.6
2023-03-03T00:58:59.941Z,4.6
2023-03-03T01:05:23.058Z,7.5
2023-03-03T01:11:42.926Z,7.5
2023-03-03T01:18:06.021Z,12.7
2023-03-03T01:24:25.899Z,12.7
2023-03-03T01:30:48.953Z,4.5
2023-03-03T01:37:09.060Z,4.5
2023-03-03T01:43:32.020Z,10.4
2023-03-03T01:49:51.936Z,10.4
2023-03-03T01:56:15.004Z,3.3
2023-03-03T02:02:34.914Z,3.3
2023-03-03T02:08:58.010Z,4.1
2023-03-03T02:15:17.943Z,4.1
2023-03-03T02:21:40.978Z,7.7
2023-03-03T02:28:00.968Z,7.7
2023-03-03T02:34:23.980Z,3.7
2023-03-03T02:40:44.088Z,3.7
2023-03-03T02:47:06.984Z,8.3
2023-03-03T02:53:27.203Z,8.3
2023-03-03T02:59:49.974Z,5.5
2023-03-03T03:06:09.941Z,5.5
2023-03-03T03:12:33.017Z,8.4
2023-03-03T03:18:52.895Z,8.4
2023-03-03T03:25:15.911Z,5.3
2023-03-03T03:31:35.973Z,5.3
2023-03-03T03:37:58.991Z,2.1
2023-03-03T03:44:18.938Z,2.1
2023-03-03T03:50:41.980Z,5.6
2023-03-03T03:57:01.971Z,5.6
2023-03-03T04:03:25.052Z,13
2023-03-03T04:09:45.146Z,13
2023-03-03T04:26:30.601Z,9.6
2023-03-03T04:32:50.917Z,9.6
2023-03-03T04:39:13.925Z,20.7
2023-03-03T04:45:33.950Z,20.7
2023-03-03T04:51:56.978Z,20.7
2023-03-03T04:58:17.000Z,20.7
2023-03-03T05:04:40.048Z,11.5
2023-03-03T05:10:59.976Z,11.5
2023-03-03T05:17:23.028Z,14.5
2023-03-03T05:23:42.982Z,14.5
2023-03-03T05:30:05.978Z,25.6
2023-03-03T05:36:26.035Z,25.6
2023-03-03T05:42:49.102Z,24.3
2023-03-03T05:49:08.903Z,24.3
2023-03-03T05:55:31.978Z,15.4
2023-03-03T06:01:52.071Z,15.4
2023-03-03T06:08:15.022Z,22.4
2023-03-03T06:14:35.002Z,22.4
2023-03-03T06:20:58.103Z,23.4
2023-03-03T06:27:17.968Z,23.4
2023-03-03T06:33:41.010Z,47.2
2023-03-03T06:40:00.992Z,47.2
2023-03-03T06:46:23.993Z,26.6
2023-03-03T06:52:44.091Z,26.6
2023-03-03T06:59:06.980Z,19.7
2023-03-03T07:05:26.960Z,19.7
2023-03-03T07:11:49.911Z,25
2023-03-03T07:18:09.994Z,25
2023-03-03T07:24:32.933Z,19.3
2023-03-03T07:30:53.150Z,19.3
2023-03-03T07:37:15.952Z,22.1
2023-03-03T07:43:35.948Z,22.1
2023-03-03T07:49:59.017Z,24.1
2023-03-03T07:56:19.052Z,24.1
2023-03-03T08:02:41.966Z,18.3
2023-03-03T08:09:02.075Z,18.3
2023-03-03T08:15:25.054Z,15
2023-03-03T08:21:44.923Z,15
2023-03-03T08:28:07.945Z,26.8
2023-03-03T08:34:27.979Z,26.8
2023-03-03T08:40:50.993Z,15.8
2023-03-03T08:47:10.985Z,15.8
2023-03-03T08:53:34.160Z,15.8
2023-03-03T08:59:54.019Z,15.8
2023-03-03T09:06:17.061Z,19.1
2023-03-03T09:12:37.080Z,19.1
2023-03-03T09:19:00.145Z,21
2023-03-03T09:35:07.827Z,44
2023-03-03T09:41:27.913Z,44
2023-03-03T09:47:50.935Z,36.4
2023-03-03T09:54:10.950Z,36.4
2023-03-03T10:00:33.973Z,23.2
2023-03-03T10:06:54.098Z,23.2
2023-03-03T10:13:16.970Z,18
2023-03-03T10:19:37.007Z,18
2023-03-03T10:26:00.040Z,23.3
2023-03-03T10:32:20.797Z,23.3
2023-03-03T10:38:43.083Z,26.4
2023-03-03T10:45:03.157Z,26.4
2023-03-03T10:51:25.976Z,21.8
2023-03-03T10:57:46.021Z,21.8
2023-03-03T11:04:09.044Z,15.4
2023-03-03T11:10:29.115Z,15.4
2023-03-03T11:16:52.157Z,14.4
2023-03-03T11:23:12.135Z,14.4
2023-03-03T11:29:35.054Z,18.3
2023-03-03T11:35:55.082Z,18.3
2023-03-03T11:42:18.047Z,12.7
2023-03-03T11:48:38.115Z,12.7
2023-03-03T11:55:00.983Z,15.9
2023-03-03T12:01:21.341Z,15.9
2023-03-03T12:07:44.460Z,11.4
2023-03-03T12:14:04.233Z,11.4
2023-03-03T12:20:27.060Z,10.5
2023-03-03T12:26:47.347Z,10.5
2023-03-03T12:33:10.285Z,15.4
2023-03-03T12:39:34.929Z,15.4
2023-03-03T12:45:53.310Z,12
2023-03-03T12:52:13.387Z,12
2023-03-03T12:58:36.265Z,19.3
2023-03-03T13:04:56.383Z,19.3
2023-03-03T13:11:19.246Z,12.1
2023-03-03T13:17:39.311Z,12.1
2023-03-03T13:24:02.314Z,13.1
2023-03-03T13:30:22.263Z,13.1
2023-03-03T13:36:45.284Z,22.3
2023-03-03T13:43:05.364Z,22.3
2023-03-03T13:49:28.276Z,23.8
2023-03-03T13:55:48.285Z,23.8
2023-03-03T14:02:11.404Z,16.6
2023-03-03T14:08:31.288Z,16.6
2023-03-03T14:14:54.257Z,24.9
2023-03-03T14:21:14.283Z,24.9
2023-03-03T14:27:37.307Z,21.9
2023-03-03T14:43:27.028Z,23.2
2023-03-03T14:49:47.262Z,23.2
2023-03-03T14:56:10.235Z,43.2
2023-03-03T15:02:30.354Z,43.2
2023-03-03T15:08:53.273Z,43.2
2023-03-03T15:15:13.414Z,43.2
2023-03-03T15:21:37.430Z,23
2023-03-03T15:27:58.387Z,23
2023-03-03T15:34:21.655Z,29.2
2023-03-03T15:40:42.277Z,29.2
2023-03-03T15:47:05.430Z,26.8
2023-03-03T15:53:26.337Z,26.8
2023-03-03T15:59:49.690Z,37.2
2023-03-03T16:06:10.266Z,37.2
2023-03-03T16:12:33.167Z,32.2
2023-03-03T16:18:53.213Z,32.2
2023-03-03T16:25:16.019Z,27.1
2023-03-03T16:31:36.062Z,27.1
2023-03-03T16:37:59.009Z,31.7
2023-03-03T16:44:18.950Z,31.7
2023-03-03T16:50:41.954Z,44.1
2023-03-03T16:57:02.041Z,44.1
2023-03-03T17:03:24.938Z,56
2023-03-03T17:09:45.048Z,56
2023-03-03T17:16:08.089Z,26.9
2023-03-03T17:22:27.964Z,26.9
2023-03-03T17:28:50.898Z,38.7
2023-03-03T17:35:10.963Z,38.7
2023-03-03T17:41:33.899Z,36.5
2023-03-03T17:47:53.980Z,36.5
2023-03-03T17:54:19.096Z,32.2
2023-03-03T18:00:37.107Z,32.2
2023-03-03T18:06:59.909Z,36.8
2023-03-03T18:13:19.999Z,36.8
2023-03-03T18:19:42.958Z,40.6
2023-03-03T18:26:02.943Z,40.6
2023-03-03T18:32:26.425Z,27
2023-03-03T18:38:45.935Z,27
2023-03-03T18:45:08.958Z,58.9
2023-03-03T18:51:29.130Z,58.9
2023-03-03T18:57:51.960Z,46.7
2023-03-03T19:04:11.961Z,46.7
2023-03-03T19:10:34.922Z,36.5
2023-03-03T19:16:55.072Z,36.5
2023-03-03T19:23:18.009Z,54.7
2023-03-03T19:29:38.086Z,54.7
2023-03-03T19:53:00.927Z,67.8
2023-03-03T19:59:23.896Z,111.3
2023-03-03T20:05:43.927Z,111.3
2023-03-03T20:12:06.982Z,111.3
2023-03-03T20:18:27.262Z,111.3
2023-03-03T20:24:49.960Z,39.5
2023-03-03T20:31:10.171Z,39.5
2023-03-03T20:37:33.044Z,37.7
2023-03-03T20:43:53.030Z,37.7
2023-03-03T20:50:16.011Z,36.2
2023-03-03T20:56:36.249Z,36.2
2023-03-03T21:02:59.043Z,53.3
2023-03-03T21:09:19.438Z,53.3
2023-03-03T21:15:42.065Z,51.4
2023-03-03T21:22:02.606Z,51.4
2023-03-03T21:28:24.982Z,48.4
2023-03-03T21:34:44.996Z,48.4
2023-03-03T21:41:08.007Z,28.1
2023-03-03T21:47:28.043Z,28.1
2023-03-03T21:53:50.949Z,60
2023-03-03T22:00:10.956Z,60
2023-03-03T22:06:33.961Z,51.1
2023-03-03T22:12:54.168Z,51.1
2023-03-03T22:19:16.940Z,48.2
2023-03-03T22:25:36.924Z,48.2
2023-03-03T22:32:00.190Z,43
2023-03-03T22:38:20.067Z,43
2023-03-03T22:44:45.484Z,56.1
2023-03-03T22:51:03.028Z,56.1
2023-03-03T22:57:25.930Z,63.4
2023-03-03T23:21:39.960Z,108.7
2023-03-03T23:27:59.891Z,108.7
2023-03-03T23:34:22.933Z,108.7
2023-03-03T23:40:42.945Z,108.7
2023-03-03T23:47:05.944Z,51.6
2023-03-03T23:53:25.957Z,51.6
2023-03-03T23:59:49.029Z,54.8
